createdAt,value
2022-10-12T00:00:28.771Z,38.33
2022-10-12T00:03:17.156Z,38.78
2022-10-12T00:06:08.940Z,37.67
2022-10-12T00:08:56.974Z,32.30
2022-10-12T00:11:44.830Z,30.75
2022-10-12T00:14:37.087Z,44.15
2022-10-12T00:17:24.931Z,42.50
2022-10-12T00:20:12.840Z,34.30
2022-10-12T00:23:00.795Z,35.30
2022-10-12T00:25:48.663Z,30.67
2022-10-12T00:28:36.885Z,45.15
2022-10-12T00:31:25.208Z,45.47
2022-10-12T00:34:12.797Z,49.03
2022-10-12T00:37:00.634Z,42.13
2022-10-12T00:39:48.760Z,36.47
2022-10-12T00:42:36.563Z,43.17
2022-10-12T00:45:26.175Z,35.45
2022-10-12T00:48:14.254Z,43.22
2022-10-12T00:51:02.908Z,32.72
2022-10-12T00:53:57.517Z,30.65
2022-10-12T00:56:48.762Z,29.80
2022-10-12T01:00:06.184Z,38.45
2022-10-12T01:02:55.037Z,30.42
2022-10-12T01:05:43.833Z,31.70
2022-10-12T01:08:31.797Z,48.88
2022-10-12T01:11:19.621Z,35.88
2022-10-12T01:14:08.369Z,30.15
2022-10-12T01:17:09.553Z,28.35
2022-10-12T01:20:22.580Z,36.35
2022-10-12T01:23:28.912Z,37.45
2022-10-12T01:26:19.671Z,27.65
2022-10-12T01:29:43.118Z,36.17
2022-10-12T01:32:45.939Z,36.00
2022-10-12T01:35:43.717Z,33.65
2022-10-12T01:38:54.426Z,27.65
2022-10-12T01:41:48.823Z,26.88
2022-10-12T01:44:41.927Z,38.35
2022-10-12T01:47:31.746Z,44.67
2022-10-12T01:50:22.126Z,49.42
2022-10-12T01:53:09.706Z,38.95
2022-10-12T01:56:22.830Z,40.08
2022-10-12T01:59:28.061Z,43.30
2022-10-12T02:02:28.318Z,45.97
2022-10-12T02:05:23.736Z,45.13
2022-10-12T02:08:33.732Z,37.53
2022-10-12T02:11:24.266Z,44.55
2022-10-12T02:14:21.679Z,36.85
2022-10-12T02:17:13.429Z,35.95
2022-10-12T02:20:02.645Z,45.30
2022-10-12T02:22:52.083Z,42.70
2022-10-12T02:25:41.196Z,41.08
2022-10-12T02:28:32.587Z,26.08
2022-10-12T02:31:52.686Z,38.85
2022-10-12T02:34:55.567Z,37.85
2022-10-12T02:37:48.756Z,28.02
2022-10-12T02:40:54.403Z,26.98
2022-10-12T02:43:56.058Z,29.23
2022-10-12T02:46:46.445Z,29.73
2022-10-12T02:49:36.384Z,34.38
2022-10-12T02:52:25.116Z,27.30
2022-10-12T02:55:13.042Z,32.15
2022-10-12T02:58:00.704Z,28.63
2022-10-12T03:00:48.779Z,24.38
2022-10-12T03:03:36.664Z,23.98
2022-10-12T03:06:24.493Z,27.17
2022-10-12T03:09:12.302Z,25.77
2022-10-12T03:12:00.303Z,21.50
2022-10-12T03:14:48.134Z,17.30
2022-10-12T03:17:36.171Z,25.83
2022-10-12T03:20:24.092Z,19.80
2022-10-12T03:23:11.779Z,18.70
2022-10-12T03:25:59.779Z,16.73
2022-10-12T03:28:47.580Z,17.52
2022-10-12T03:31:35.169Z,16.42
2022-10-12T03:34:23.107Z,12.52
2022-10-12T03:37:11.237Z,11.02
2022-10-12T03:39:58.883Z,11.60
2022-10-12T03:42:46.900Z,15.73
2022-10-12T03:45:35.091Z,12.25
2022-10-12T03:48:23.134Z,12.02
2022-10-12T03:51:10.992Z,15.15
2022-10-12T03:53:58.562Z,11.70
2022-10-12T03:56:46.129Z,18.67
2022-10-12T03:59:34.040Z,11.32
2022-10-12T04:02:22.257Z,17.13
2022-10-12T04:05:10.171Z,13.77
2022-10-12T04:07:58.497Z,15.82
2022-10-12T04:10:46.461Z,14.05
2022-10-12T04:13:34.337Z,13.27
2022-10-12T04:16:24.095Z,9.77
2022-10-12T04:19:14.743Z,14.30
2022-10-12T04:22:02.310Z,12.70
2022-10-12T04:24:50.700Z,19.13
2022-10-12T04:27:38.495Z,21.20
2022-10-12T04:30:26.749Z,17.85
2022-10-12T04:33:14.942Z,12.95
2022-10-12T04:36:02.776Z,11.27
2022-10-12T04:38:51.027Z,12.98
2022-10-12T04:41:40.419Z,24.20
2022-10-12T04:44:32.136Z,19.38
2022-10-12T04:47:20.527Z,25.92
2022-10-12T04:50:08.893Z,16.63
2022-10-12T04:52:56.741Z,25.85
2022-10-12T04:55:44.445Z,22.30
2022-10-12T04:58:33.205Z,19.52
2022-10-12T05:01:21.359Z,19.88
2022-10-12T05:04:08.922Z,21.17
2022-10-12T05:06:57.025Z,19.90
2022-10-12T05:09:44.643Z,24.67
2022-10-12T05:12:32.227Z,15.75
2022-10-12T05:15:20.761Z,22.25
2022-10-12T05:18:08.750Z,21.33
2022-10-12T05:20:57.304Z,16.77
2022-10-12T05:23:45.286Z,16.20
2022-10-12T05:26:33.463Z,27.67
2022-10-12T05:29:21.115Z,31.08
2022-10-12T05:32:08.906Z,23.40
2022-10-12T05:34:57.044Z,23.10
2022-10-12T05:37:44.793Z,23.67
2022-10-12T05:40:32.767Z,26.52
2022-10-12T05:43:20.835Z,23.00
2022-10-12T05:46:13.557Z,36.50
2022-10-12T05:49:02.710Z,21.60
2022-10-12T05:51:50.397Z,28.77
2022-10-12T05:54:39.048Z,23.00
2022-10-12T05:57:26.641Z,25.48
2022-10-12T06:00:14.792Z,14.27
2022-10-12T06:03:03.020Z,18.00
2022-10-12T06:05:51.102Z,17.88
2022-10-12T06:08:39.239Z,13.73
2022-10-12T06:11:28.601Z,15.57
2022-10-12T06:14:18.185Z,17.42
2022-10-12T06:17:05.876Z,26.10
2022-10-12T06:19:54.014Z,16.15
2022-10-12T06:22:41.776Z,21.52
2022-10-12T06:25:29.683Z,17.52
2022-10-12T06:28:20.450Z,18.10
2022-10-12T06:31:08.098Z,24.55
2022-10-12T06:33:55.986Z,15.38
2022-10-12T06:36:44.023Z,23.55
2022-10-12T06:39:32.378Z,19.50
2022-10-12T06:42:19.967Z,16.55
2022-10-12T06:45:11.256Z,16.02
2022-10-12T06:47:58.882Z,13.05
2022-10-12T06:50:47.230Z,14.52
2022-10-12T06:53:35.219Z,17.35
2022-10-12T06:56:23.386Z,10.13
2022-10-12T06:59:14.142Z,11.05
2022-10-12T07:02:01.944Z,11.65
2022-10-12T07:04:53.830Z,11.32
2022-10-12T07:07:41.676Z,11.95
2022-10-12T07:10:29.832Z,8.80
2022-10-12T07:13:17.671Z,9.32
2022-10-12T07:16:05.524Z,7.78
2022-10-12T07:18:53.888Z,13.63
2022-10-12T07:21:41.502Z,10.90
2022-10-12T07:24:36.552Z,15.50
2022-10-12T07:27:24.155Z,16.15
2022-10-12T07:30:13.112Z,15.73
2022-10-12T07:33:00.946Z,11.98
2022-10-12T07:36:13.381Z,13.45
2022-10-12T07:39:02.506Z,12.70
2022-10-12T07:41:51.452Z,12.93
2022-10-12T07:44:39.388Z,9.85
2022-10-12T07:47:27.270Z,9.48
2022-10-12T07:50:16.002Z,6.82
2022-10-12T07:53:03.835Z,11.85
2022-10-12T07:55:52.249Z,8.32
2022-10-12T07:58:40.150Z,4.97
2022-10-12T08:01:30.269Z,6.57
2022-10-12T08:04:18.208Z,7.32
2022-10-12T08:07:06.053Z,4.97
2022-10-12T08:09:54.079Z,6.20
2022-10-12T08:12:41.954Z,5.32
2022-10-12T08:15:29.952Z,6.90
2022-10-12T08:18:17.786Z,5.57
2022-10-12T08:21:07.596Z,5.82
2022-10-12T08:23:55.511Z,5.53
2022-10-12T08:26:43.645Z,6.18
2022-10-12T08:29:31.462Z,3.90
2022-10-12T08:32:19.605Z,8.20
2022-10-12T08:35:07.472Z,3.50
2022-10-12T08:37:55.084Z,6.88
2022-10-12T08:40:54.945Z,5.45
2022-10-12T08:44:05.001Z,8.55
2022-10-12T08:47:18.132Z,8.77
2022-10-12T08:50:10.632Z,5.05
2022-10-12T08:53:16.013Z,7.43
2022-10-12T08:56:03.905Z,12.43
2022-10-12T08:58:53.163Z,11.55
2022-10-12T09:02:02.029Z,6.53
2022-10-12T09:04:49.874Z,5.55
2022-10-12T09:07:44.314Z,6.38
2022-10-12T09:10:47.318Z,7.30
2022-10-12T09:13:52.063Z,5.18
2022-10-12T09:16:44.783Z,5.57
2022-10-12T09:19:41.387Z,7.40
2022-10-12T09:22:31.082Z,7.80
2022-10-12T09:25:27.042Z,6.63
2022-10-12T09:28:41.272Z,9.20
2022-10-12T09:31:41.345Z,10.10
2022-10-12T09:34:29.250Z,7.07
2022-10-12T09:37:28.312Z,6.47
2022-10-12T09:40:26.467Z,5.38
2022-10-12T09:43:14.770Z,5.68
2022-10-12T09:46:06.835Z,7.57
2022-10-12T09:48:59.593Z,6.85
2022-10-12T09:51:47.328Z,6.05
2022-10-12T09:54:35.688Z,4.10
2022-10-12T09:57:31.362Z,6.93
2022-10-12T10:00:31.483Z,11.68
2022-10-12T10:03:30.606Z,13.90
2022-10-12T10:06:26.233Z,6.72
2022-10-12T10:09:32.011Z,4.78
2022-10-12T10:12:29.485Z,6.75
2022-10-12T10:15:38.875Z,5.30
2022-10-12T10:18:38.726Z,4.05
2022-10-12T10:21:29.353Z,4.72
2022-10-12T10:24:28.611Z,6.10
2022-10-12T10:27:40.269Z,7.38
2022-10-12T10:30:39.628Z,5.40
2022-10-12T10:33:34.309Z,6.50
2022-10-12T10:36:25.140Z,7.93
2022-10-12T10:39:29.235Z,10.55
2022-10-12T10:42:24.897Z,5.95
2022-10-12T10:45:23.679Z,6.10
2022-10-12T10:48:18.218Z,5.95
2022-10-12T10:51:07.551Z,6.10
2022-10-12T10:53:56.622Z,7.35
2022-10-12T10:56:47.077Z,5.43
2022-10-12T11:00:26.055Z,8.35
2022-10-12T11:06:11.757Z,7.90
2022-10-12T11:09:06.916Z,5.22
2022-10-12T11:12:00.708Z,6.07
2022-10-12T11:14:52.251Z,9.40
2022-10-12T11:17:47.250Z,7.07
2022-10-12T11:20:45.521Z,9.55
2022-10-12T11:23:39.330Z,5.30
2022-10-12T11:26:35.608Z,4.40
2022-10-12T11:29:23.898Z,14.00
2022-10-12T11:32:23.327Z,10.85
2022-10-12T11:35:41.194Z,9.40
2022-10-12T11:38:45.020Z,13.65
2022-10-12T11:42:03.273Z,6.22
2022-10-12T11:44:55.092Z,10.18
2022-10-12T11:47:47.228Z,11.10
2022-10-12T11:50:37.421Z,8.50
2022-10-12T11:53:28.507Z,9.38
2022-10-12T11:56:26.135Z,7.97
2022-10-12T11:59:24.632Z,6.72
2022-10-12T12:02:34.567Z,7.30
2022-10-12T12:05:26.192Z,5.63
2022-10-12T12:08:55.378Z,7.07
2022-10-12T12:11:43.461Z,7.03
2022-10-12T12:14:31.422Z,7.07
2022-10-12T12:17:19.318Z,5.38
2022-10-12T12:20:44.852Z,9.65
2022-10-12T12:23:42.699Z,6.45
2022-10-12T12:26:31.076Z,7.97
2022-10-12T12:29:29.833Z,7.40
2022-10-12T12:32:20.092Z,6.30
2022-10-12T12:35:30.012Z,8.68
2022-10-12T12:38:24.144Z,10.30
2022-10-12T12:41:20.216Z,6.75
2022-10-12T12:44:33.751Z,9.00
2022-10-12T12:47:45.471Z,7.32
2022-10-12T12:50:39.820Z,8.32
2022-10-12T12:53:31.011Z,9.60
2022-10-12T12:56:48.219Z,9.32
2022-10-12T13:00:04.486Z,5.85
2022-10-12T13:03:19.885Z,6.90
2022-10-12T13:06:28.934Z,8.95
2022-10-12T13:09:16.822Z,7.70
2022-10-12T13:12:23.090Z,5.63
2022-10-12T13:15:21.189Z,9.60
2022-10-12T13:18:45.966Z,7.40
2022-10-12T13:21:47.357Z,7.10
2022-10-12T22:51:41.832Z,6.90
2022-10-12T23:31:05.983Z,5.45
